createdAt,value
2023-01-15T00:03:09.232Z,95.23
2023-01-15T00:08:31.633Z,95.40
2023-01-15T00:13:36.450Z,95.81
2023-01-15T00:18:45.645Z,95.48
2023-01-15T00:24:12.465Z,95.62
2023-01-15T00:29:23.075Z,95.59
2023-01-15T00:34:33.162Z,96.32
2023-01-15T00:39:39.825Z,96.90
2023-01-15T00:45:04.246Z,97.39
2023-01-15T00:50:13.735Z,98.23
2023-01-15T00:55:23.164Z,98.15
2023-01-15T01:00:28.816Z,97.98
2023-01-15T01:05:33.859Z,98.26
2023-01-15T01:10:42.253Z,98.75
2023-01-15T01:15:46.739Z,98.79
2023-01-15T01:20:55.667Z,99.52
2023-01-15T01:26:07.386Z,98.86
2023-01-15T01:31:11.289Z,99.76
2023-01-15T01:36:15.594Z,99.64
2023-01-15T01:41:23.258Z,100.00
2023-01-15T01:46:36.005Z,99.93
2023-01-15T01:51:53.139Z,100.00
2023-01-15T01:57:02.028Z,99.23
2023-01-15T02:02:08.781Z,100.00
2023-01-15T02:07:14.780Z,99.50
2023-01-15T02:12:28.353Z,100.00
2023-01-15T02:17:40.744Z,100.00
2023-01-15T02:23:03.026Z,100.00
2023-01-15T02:28:33.126Z,100.00
2023-01-15T02:33:42.483Z,100.00
2023-01-15T02:38:52.553Z,100.00
2023-01-15T02:43:59.760Z,100.00
2023-01-15T02:49:08.591Z,100.00
2023-01-15T02:54:20.068Z,100.00
2023-01-15T02:59:32.029Z,100.00
2023-01-15T03:04:43.865Z,100.00
2023-01-15T03:09:52.236Z,100.00
2023-01-15T03:15:09.773Z,100.00
2023-01-15T03:20:22.352Z,100.00
2023-01-15T03:26:39.972Z,100.00
2023-01-15T03:31:45.883Z,100.00
2023-01-15T03:36:52.044Z,100.00
2023-01-15T03:42:10.710Z,100.00
2023-01-15T03:47:31.823Z,100.00
2023-01-15T03:52:44.267Z,100.00
2023-01-15T03:57:54.010Z,100.00
2023-01-15T04:03:04.261Z,100.00
2023-01-15T04:08:10.114Z,100.00
2023-01-15T04:13:15.281Z,100.00
2023-01-15T04:18:26.408Z,100.00
2023-01-15T04:23:35.042Z,100.00
2023-01-15T04:28:43.137Z,100.00
2023-01-15T04:33:55.497Z,100.00
2023-01-15T04:39:00.686Z,100.00
2023-01-15T04:44:09.198Z,100.00
2023-01-15T04:49:20.060Z,100.00
2023-01-15T04:54:24.150Z,100.00
2023-01-15T04:59:31.925Z,100.00
2023-01-15T05:04:38.001Z,100.00
2023-01-15T05:09:42.964Z,100.00
2023-01-15T05:14:51.914Z,100.00
2023-01-15T05:20:01.670Z,100.00
2023-01-15T05:25:22.262Z,100.00
2023-01-15T05:30:32.396Z,100.00
2023-01-15T05:35:38.660Z,100.00
2023-01-15T05:40:43.055Z,100.00
2023-01-15T05:45:51.995Z,100.00
2023-01-15T05:50:59.537Z,100.00
2023-01-15T05:56:04.826Z,100.00
2023-01-15T06:01:12.967Z,100.00
2023-01-15T06:06:21.988Z,100.00
2023-01-15T06:11:29.292Z,100.00
2023-01-15T06:16:36.980Z,100.00
2023-01-15T06:21:45.871Z,100.00
2023-01-15T06:26:50.516Z,100.00
2023-01-15T06:31:57.140Z,100.00
2023-01-15T06:37:03.032Z,100.00
2023-01-15T06:42:25.345Z,100.00
2023-01-15T06:47:34.315Z,100.00
2023-01-15T06:52:42.272Z,100.00
2023-01-15T06:57:47.262Z,100.00
2023-01-15T07:02:52.907Z,100.00
2023-01-15T07:08:04.131Z,100.00
2023-01-15T07:13:11.773Z,100.00
2023-01-15T07:18:18.143Z,100.00
2023-01-15T07:23:23.334Z,100.00
2023-01-15T07:28:28.394Z,100.00
2023-01-15T07:33:35.298Z,100.00
2023-01-15T07:38:42.270Z,100.00
2023-01-15T07:44:04.472Z,100.00
2023-01-15T07:49:29.004Z,100.00
2023-01-15T07:54:37.860Z,100.00
2023-01-15T07:59:44.350Z,100.00
2023-01-15T08:04:56.958Z,100.00
2023-01-15T08:10:06.350Z,100.00
2023-01-15T08:15:17.120Z,100.00
2023-01-15T08:20:28.159Z,100.00
2023-01-15T08:25:42.179Z,100.00
2023-01-15T08:30:47.836Z,100.00
2023-01-15T08:35:56.628Z,100.00
2023-01-15T08:41:04.474Z,100.00
2023-01-15T08:46:13.818Z,100.00
2023-01-15T08:51:20.879Z,100.00
2023-01-15T08:56:29.185Z,100.00
2023-01-15T09:01:35.084Z,100.00
2023-01-15T09:06:52.960Z,100.00
2023-01-15T09:17:53.214Z,100.00
2023-01-15T09:23:01.362Z,100.00
2023-01-15T09:28:08.409Z,100.00
2023-01-15T09:33:24.830Z,99.36
2023-01-15T09:38:39.218Z,99.35
2023-01-15T09:43:56.989Z,99.80
2023-01-15T09:49:18.824Z,98.38
2023-01-15T09:54:40.240Z,98.13
2023-01-15T09:59:51.352Z,97.16
2023-01-15T10:05:00.328Z,96.26
2023-01-15T10:10:09.648Z,95.46
2023-01-15T10:15:36.242Z,93.69
2023-01-15T10:20:56.955Z,94.46
2023-01-15T10:26:05.869Z,93.35
2023-01-15T10:31:21.669Z,91.08
2023-01-15T10:36:37.400Z,90.90
2023-01-15T10:42:03.760Z,88.54
2023-01-15T10:47:18.196Z,88.22
2023-01-15T10:52:34.880Z,87.19
2023-01-15T10:57:56.433Z,85.84
2023-01-15T11:03:20.040Z,85.03
2023-01-15T11:14:14.834Z,83.99
2023-01-15T11:19:40.601Z,83.19
2023-01-15T11:24:53.576Z,81.49
2023-01-15T11:30:09.498Z,81.46
2023-01-15T11:35:24.465Z,81.17
2023-01-15T11:40:37.401Z,79.95
2023-01-15T11:46:22.768Z,79.96
2023-01-15T11:51:33.113Z,79.06
2023-01-15T11:56:48.744Z,78.78
2023-01-15T12:02:00.926Z,77.44
2023-01-15T12:07:23.014Z,76.43
2023-01-15T12:12:41.211Z,76.73
2023-01-15T12:18:11.366Z,76.46
2023-01-15T12:24:03.869Z,74.90
2023-01-15T12:29:18.697Z,75.14
2023-01-15T12:34:28.722Z,74.37
2023-01-15T12:39:41.863Z,73.93
2023-01-15T12:45:05.894Z,73.69
2023-01-15T12:50:27.915Z,73.64
2023-01-15T12:55:42.595Z,73.65
2023-01-15T13:01:06.195Z,74.08
2023-01-15T13:06:14.450Z,74.17
2023-01-15T13:11:24.173Z,74.30
2023-01-15T13:16:44.144Z,74.07
2023-01-15T13:21:54.158Z,74.16
2023-01-15T13:27:11.736Z,74.10
2023-01-15T13:32:21.598Z,74.75
2023-01-15T13:37:29.335Z,74.66
2023-01-15T13:42:40.994Z,75.54
2023-01-15T13:47:57.154Z,75.52
2023-01-15T13:53:09.814Z,74.84
2023-01-15T13:58:25.660Z,74.71
2023-01-15T14:03:38.501Z,75.42
2023-01-15T14:08:47.062Z,75.77
2023-01-15T14:14:16.224Z,74.76
2023-01-15T14:20:29.627Z,75.88
2023-01-15T14:25:51.202Z,75.54
2023-01-15T14:31:25.545Z,75.41
2023-01-15T14:36:38.136Z,74.64
2023-01-15T14:41:56.177Z,74.82
2023-01-15T14:47:04.446Z,75.39
2023-01-15T14:52:11.201Z,75.53
2023-01-15T14:57:18.711Z,75.26
2023-01-15T15:02:40.070Z,75.68
2023-01-15T15:07:58.643Z,75.29
2023-01-15T15:13:14.298Z,75.26
2023-01-15T15:18:35.529Z,75.49
2023-01-15T15:23:49.065Z,75.71
2023-01-15T15:29:05.453Z,76.19
2023-01-15T15:34:19.571Z,75.08
2023-01-15T15:39:32.864Z,75.77
2023-01-15T15:45:04.947Z,75.24
2023-01-15T15:50:23.971Z,75.42
2023-01-15T15:55:40.092Z,75.63
2023-01-15T16:00:50.030Z,76.40
2023-01-15T16:06:00.381Z,75.89
2023-01-15T16:11:10.705Z,76.43
2023-01-15T16:16:22.234Z,77.18
2023-01-15T16:21:56.132Z,76.18
2023-01-15T16:27:07.833Z,76.82
2023-01-15T16:32:15.315Z,77.11
2023-01-15T16:37:31.090Z,77.23
2023-01-15T16:42:41.335Z,76.43
2023-01-15T16:48:05.533Z,75.81
2023-01-15T16:53:39.435Z,75.92
2023-01-15T16:58:46.254Z,76.18
2023-01-15T17:03:51.567Z,76.13
2023-01-15T17:08:57.583Z,76.02
2023-01-15T17:14:26.693Z,76.38
2023-01-15T17:19:32.681Z,75.38
2023-01-15T17:24:37.776Z,75.81
2023-01-15T17:29:46.342Z,76.18
2023-01-15T17:34:54.940Z,76.20
2023-01-15T17:39:59.794Z,75.58
2023-01-15T17:45:22.005Z,74.97
2023-01-15T17:50:29.134Z,75.01
2023-01-15T17:55:51.133Z,75.44
2023-01-15T18:01:24.469Z,75.87
2023-01-15T18:06:37.880Z,75.16
2023-01-15T18:11:47.271Z,76.46
2023-01-15T18:17:01.306Z,76.19
2023-01-15T18:22:06.055Z,76.27
2023-01-15T18:27:14.346Z,76.72
2023-01-15T18:32:20.972Z,76.76
2023-01-15T18:37:24.821Z,77.80
2023-01-15T18:42:45.701Z,78.57
2023-01-15T18:47:50.616Z,78.49
2023-01-15T18:52:55.700Z,78.47
2023-01-15T18:58:05.532Z,78.99
2023-01-15T19:03:13.039Z,78.50
2023-01-15T19:08:26.357Z,78.98
2023-01-15T19:13:34.203Z,79.10
2023-01-15T19:18:56.731Z,79.44
2023-01-15T19:24:06.396Z,80.42
2023-01-15T19:29:18.174Z,80.60
2023-01-15T19:34:33.870Z,81.11
2023-01-15T19:39:37.653Z,81.38
2023-01-15T19:44:59.016Z,81.93
2023-01-15T19:50:23.018Z,81.76
2023-01-15T19:55:35.232Z,81.40
2023-01-15T20:00:45.869Z,82.10
2023-01-15T20:05:53.831Z,82.18
2023-01-15T20:11:05.641Z,82.06
2023-01-15T20:21:46.689Z,81.99
2023-01-15T20:26:55.443Z,81.92
2023-01-15T20:32:00.220Z,82.53
2023-01-15T20:37:14.433Z,81.60
2023-01-15T20:42:37.564Z,82.43
2023-01-15T20:48:00.800Z,81.85
2023-01-15T20:53:13.496Z,82.85
2023-01-15T20:58:17.908Z,81.91
2023-01-15T21:03:33.330Z,81.95
2023-01-15T21:09:02.858Z,81.76
2023-01-15T21:14:07.915Z,82.30
2023-01-15T21:24:39.167Z,82.81
2023-01-15T21:29:49.863Z,83.08
2023-01-15T21:34:54.667Z,82.85
2023-01-15T21:40:03.484Z,83.34
2023-01-15T21:45:12.121Z,83.20
2023-01-15T21:50:19.450Z,83.43
2023-01-15T21:55:35.468Z,83.24
2023-01-15T22:00:44.548Z,83.97
2023-01-15T22:05:50.485Z,84.39
2023-01-15T22:10:56.560Z,84.05
2023-01-15T22:16:04.503Z,84.57
2023-01-15T22:21:15.518Z,84.87
2023-01-15T22:26:23.617Z,85.60
2023-01-15T22:31:29.634Z,84.43
2023-01-15T22:36:34.103Z,84.23
2023-01-15T22:41:56.905Z,84.38
2023-01-15T22:47:01.699Z,84.21
2023-01-15T22:52:08.829Z,83.98
2023-01-15T22:57:19.976Z,85.24
2023-01-15T23:02:46.672Z,85.50
2023-01-15T23:07:50.856Z,86.09
2023-01-15T23:12:55.773Z,85.73
2023-01-15T23:18:00.740Z,86.35
2023-01-15T23:23:10.941Z,86.39
2023-01-15T23:28:18.369Z,85.84
2023-01-15T23:33:22.374Z,85.29
2023-01-15T23:38:27.313Z,85.33
2023-01-15T23:43:52.512Z,85.39
2023-01-15T23:48:56.495Z,86.38
2023-01-15T23:54:03.912Z,86.77
2023-01-15T23:59:17.265Z,86.70
